Little Rock Air Force Base, Arkansas
Current Conditions -  °F | °C
As of 12:58 PM on Thursday 23 Oct 2014 (Local Time) from KLRF Reporting Station
Overcast Overcast  
Wind Chill: 14°   Ceiling: 17000
Heat Index: 14°   Visibility: 10mi
Dew Point:   Wind: 3mph
Humidity: 71%   Direction: 350°N
Pressure: 30.19"   Gusts: NA
Location:  34.9074°N, 92.1397°W
Report Text: KLRF 231758Z AUTO 35003KT 10SM FEW150 OVC170 14/09 A3019 RMK AO2 SLP226 T01420090 10142 20066 58011
Loading
Personal Weather Stations






























Interactive Weather Map
Tropical Storm Tracking
New forecast layout! Learn more

10-Day Weather Forecast

Advertisements
Track Severe Weather on mobile